Rechercher aéroport 
image banner adimage banner ad
image banner ad

SVHC - Caribe

Situé à Maiquetia, Venezuela

ICAO - SVHC, IATA -

Données fournies par Airmate  

Information générale

Coordonnées: N10°35'55" W66°59'48"
Élévation : 138 feet MSL.
 
Voir autres Aéroports à Zulia

Données opérationnelles

Accessible au public
Heure actuelle UTC:
Heure actuelle locale:
METAR: SVMI 230600Z 00000KT CAVOK 24/23 Q1012
TAF: TAF SVMI 230400Z 2306/2406 06006KT 9999 SCT016 TX33/2319Z TN23/2307Z BECMG 2306/2310 09005KT FEW016
Voir NOTAMs / SUP AIP / TFR affectant cet aéroport [VIEW]
Fréquences de communication: [VIEW]

Pistes:

Coordonnées de l'aéroport

Adresse: Maiquetia Venezuela

Vue satellite de SVHC